sensor_id;sensor_type;location;lat;lon;timestamp;temperature;humidity
52189;DHT22;38162;45.926;13.608;2022-09-27T00:01:05;15.80;92.20
52189;DHT22;38162;45.926;13.608;2022-09-27T00:03:31;15.90;92.30
52189;DHT22;38162;45.926;13.608;2022-09-27T00:06:17;15.80;92.50
52189;DHT22;38162;45.926;13.608;2022-09-27T00:08:44;15.80;92.40
52189;DHT22;38162;45.926;13.608;2022-09-27T00:11:29;15.90;92.50
52189;DHT22;38162;45.926;13.608;2022-09-27T00:13:57;15.80;92.50
52189;DHT22;38162;45.926;13.608;2022-09-27T00:16:26;15.80;92.50
52189;DHT22;38162;45.926;13.608;2022-09-27T00:18:52;15.80;92.60
52189;DHT22;38162;45.926;13.608;2022-09-27T00:21:18;15.80;92.50
52189;DHT22;38162;45.926;13.608;2022-09-27T00:23:44;15.70;92.40
52189;DHT22;38162;45.926;13.608;2022-09-27T00:26:11;15.70;92.30
52189;DHT22;38162;45.926;13.608;2022-09-27T00:28:37;15.60;92.40
52189;DHT22;38162;45.926;13.608;2022-09-27T00:31:04;15.60;92.30
52189;DHT22;38162;45.926;13.608;2022-09-27T00:33:35;15.60;92.40
52189;DHT22;38162;45.926;13.608;2022-09-27T00:36:05;15.50;92.50
52189;DHT22;38162;45.926;13.608;2022-09-27T00:38:31;15.50;92.50
52189;DHT22;38162;45.926;13.608;2022-09-27T00:40:57;15.50;92.50
52189;DHT22;38162;45.926;13.608;2022-09-27T00:43:23;15.50;92.60
52189;DHT22;38162;45.926;13.608;2022-09-27T00:45:56;15.50;92.60
52189;DHT22;38162;45.926;13.608;2022-09-27T00:48:26;15.50;92.50
52189;DHT22;38162;45.926;13.608;2022-09-27T00:50:57;15.50;92.60
52189;DHT22;38162;45.926;13.608;2022-09-27T00:53:37;15.50;92.70
52189;DHT22;38162;45.926;13.608;2022-09-27T00:56:09;15.50;92.70
52189;DHT22;38162;45.926;13.608;2022-09-27T00:58:41;15.40;92.80
52189;DHT22;38162;45.926;13.608;2022-09-27T01:01:08;15.50;92.80
52189;DHT22;38162;45.926;13.608;2022-09-27T01:06:05;15.40;93.10
52189;DHT22;38162;45.926;13.608;2022-09-27T01:08:32;15.40;93.20
52189;DHT22;38162;45.926;13.608;2022-09-27T01:16:44;15.30;93.20
52189;DHT22;38162;45.926;13.608;2022-09-27T01:22:08;15.30;93.40
52189;DHT22;38162;45.926;13.608;2022-09-27T01:25:41;15.30;93.40
52189;DHT22;38162;45.926;13.608;2022-09-27T01:30:31;15.40;93.60
52189;DHT22;38162;45.926;13.608;2022-09-27T01:35:53;15.40;93.60
52189;DHT22;38162;45.926;13.608;2022-09-27T01:38:33;15.40;93.50
52189;DHT22;38162;45.926;13.608;2022-09-27T01:41:06;15.40;93.50
52189;DHT22;38162;45.926;13.608;2022-09-27T01:43:51;15.40;93.50
52189;DHT22;38162;45.926;13.608;2022-09-27T01:46:26;15.40;93.60
52189;DHT22;38162;45.926;13.608;2022-09-27T01:48:57;15.40;93.60
52189;DHT22;38162;45.926;13.608;2022-09-27T01:51:34;15.40;93.50
52189;DHT22;38162;45.926;13.608;2022-09-27T01:54:03;15.40;93.40
52189;DHT22;38162;45.926;13.608;2022-09-27T01:56:31;15.40;93.30
52189;DHT22;38162;45.926;13.608;2022-09-27T01:59:06;15.40;93.30
52189;DHT22;38162;45.926;13.608;2022-09-27T02:01:35;15.40;93.40
52189;DHT22;38162;45.926;13.608;2022-09-27T02:04:04;15.30;93.50
52189;DHT22;38162;45.926;13.608;2022-09-27T02:06:35;15.30;93.50
52189;DHT22;38162;45.926;13.608;2022-09-27T02:09:12;15.40;93.60
52189;DHT22;38162;45.926;13.608;2022-09-27T02:11:40;15.40;93.60
52189;DHT22;38162;45.926;13.608;2022-09-27T02:14:20;15.40;93.60
52189;DHT22;38162;45.926;13.608;2022-09-27T02:16:49;15.40;93.70
52189;DHT22;38162;45.926;13.608;2022-09-27T02:19:35;15.40;93.70
52189;DHT22;38162;45.926;13.608;2022-09-27T02:24:49;15.40;93.80
52189;DHT22;38162;45.926;13.608;2022-09-27T02:27:28;15.40;93.80
52189;DHT22;38162;45.926;13.608;2022-09-27T02:30:11;15.30;93.70
52189;DHT22;38162;45.926;13.608;2022-09-27T02:32:38;15.20;93.80
52189;DHT22;38162;45.926;13.608;2022-09-27T02:35:26;15.20;93.70
52189;DHT22;38162;45.926;13.608;2022-09-27T02:37:54;15.20;93.70
52189;DHT22;38162;45.926;13.608;2022-09-27T02:40:21;15.20;93.90
52189;DHT22;38162;45.926;13.608;2022-09-27T02:42:47;15.20;93.90
52189;DHT22;38162;45.926;13.608;2022-09-27T02:45:14;15.20;94.00
52189;DHT22;38162;45.926;13.608;2022-09-27T02:48:04;15.20;94.00
52189;DHT22;38162;45.926;13.608;2022-09-27T02:51:02;15.20;93.80
52189;DHT22;38162;45.926;13.608;2022-09-27T03:04:20;15.30;93.20
52189;DHT22;38162;45.926;13.608;2022-09-27T03:06:48;15.30;93.00
52189;DHT22;38162;45.926;13.608;2022-09-27T03:09:24;15.20;93.00
52189;DHT22;38162;45.926;13.608;2022-09-27T03:11:52;15.20;93.10
52189;DHT22;38162;45.926;13.608;2022-09-27T03:14:19;15.20;93.10
52189;DHT22;38162;45.926;13.608;2022-09-27T03:16:45;15.20;93.20
52189;DHT22;38162;45.926;13.608;2022-09-27T03:19:10;15.20;93.30
52189;DHT22;38162;45.926;13.608;2022-09-27T03:21:36;15.20;93.40
52189;DHT22;38162;45.926;13.608;2022-09-27T03:24:02;15.20;93.40
52189;DHT22;38162;45.926;13.608;2022-09-27T03:26:28;15.20;93.40
52189;DHT22;38162;45.926;13.608;2022-09-27T03:28:54;15.20;93.40
52189;DHT22;38162;45.926;13.608;2022-09-27T03:31:19;15.20;93.40
52189;DHT22;38162;45.926;13.608;2022-09-27T03:33:45;15.20;93.30
52189;DHT22;38162;45.926;13.608;2022-09-27T03:36:12;15.20;93.30
52189;DHT22;38162;45.926;13.608;2022-09-27T03:38:37;15.20;93.30
52189;DHT22;38162;45.926;13.608;2022-09-27T03:41:04;15.20;93.30
52189;DHT22;38162;45.926;13.608;2022-09-27T03:43:29;15.20;93.40
52189;DHT22;38162;45.926;13.608;2022-09-27T03:45:55;15.20;93.50
52189;DHT22;38162;45.926;13.608;2022-09-27T03:48:21;15.20;93.50
52189;DHT22;38162;45.926;13.608;2022-09-27T03:50:46;15.20;93.50
52189;DHT22;38162;45.926;13.608;2022-09-27T03:53:12;15.10;93.60
52189;DHT22;38162;45.926;13.608;2022-09-27T03:55:38;15.10;93.60
52189;DHT22;38162;45.926;13.608;2022-09-27T03:58:03;15.10;93.70
52189;DHT22;38162;45.926;13.608;2022-09-27T04:00:30;15.10;93.70
52189;DHT22;38162;45.926;13.608;2022-09-27T04:02:57;15.10;93.80
52189;DHT22;38162;45.926;13.608;2022-09-27T04:05:24;15.10;93.90
52189;DHT22;38162;45.926;13.608;2022-09-27T04:07:51;15.10;94.00
52189;DHT22;38162;45.926;13.608;2022-09-27T04:10:16;15.10;93.90
52189;DHT22;38162;45.926;13.608;2022-09-27T04:12:43;15.10;93.90
52189;DHT22;38162;45.926;13.608;2022-09-27T04:15:09;15.10;93.90
52189;DHT22;38162;45.926;13.608;2022-09-27T04:17:35;15.10;94.00
52189;DHT22;38162;45.926;13.608;2022-09-27T04:20:01;15.10;94.10
52189;DHT22;38162;45.926;13.608;2022-09-27T04:22:28;15.10;94.20
52189;DHT22;38162;45.926;13.608;2022-09-27T04:24:54;15.20;94.20
52189;DHT22;38162;45.926;13.608;2022-09-27T04:27:19;15.10;94.30
52189;DHT22;38162;45.926;13.608;2022-09-27T04:29:47;15.20;94.20
52189;DHT22;38162;45.926;13.608;2022-09-27T04:32:13;15.20;94.20
52189;DHT22;38162;45.926;13.608;2022-09-27T04:34:39;15.20;94.20
52189;DHT22;38162;45.926;13.608;2022-09-27T04:37:24;15.20;94.20
52189;DHT22;38162;45.926;13.608;2022-09-27T04:39:50;15.20;94.10
52189;DHT22;38162;45.926;13.608;2022-09-27T04:42:16;15.20;94.00
52189;DHT22;38162;45.926;13.608;2022-09-27T04:44:43;15.20;94.10
52189;DHT22;38162;45.926;13.608;2022-09-27T04:47:09;15.20;94.00
52189;DHT22;38162;45.926;13.608;2022-09-27T04:49:35;15.20;94.00
52189;DHT22;38162;45.926;13.608;2022-09-27T04:52:01;15.20;94.00
52189;DHT22;38162;45.926;13.608;2022-09-27T04:54:27;15.20;94.00
52189;DHT22;38162;45.926;13.608;2022-09-27T04:56:53;15.20;94.00
52189;DHT22;38162;45.926;13.608;2022-09-27T04:59:19;15.20;93.90
52189;DHT22;38162;45.926;13.608;2022-09-27T05:01:45;15.20;93.90
52189;DHT22;38162;45.926;13.608;2022-09-27T05:04:11;15.20;93.90
52189;DHT22;38162;45.926;13.608;2022-09-27T05:06:37;15.20;93.90
52189;DHT22;38162;45.926;13.608;2022-09-27T05:09:03;15.20;93.90
52189;DHT22;38162;45.926;13.608;2022-09-27T05:11:28;15.20;93.90
52189;DHT22;38162;45.926;13.608;2022-09-27T05:13:54;15.20;93.90
52189;DHT22;38162;45.926;13.608;2022-09-27T05:16:20;15.20;93.90
52189;DHT22;38162;45.926;13.608;2022-09-27T05:18:45;15.20;94.00
52189;DHT22;38162;45.926;13.608;2022-09-27T05:21:11;15.20;94.10
52189;DHT22;38162;45.926;13.608;2022-09-27T05:23:37;15.20;94.10
52189;DHT22;38162;45.926;13.608;2022-09-27T05:26:04;15.20;94.10
52189;DHT22;38162;45.926;13.608;2022-09-27T05:28:30;15.20;94.10
52189;DHT22;38162;45.926;13.608;2022-09-27T05:30:56;15.20;94.20
52189;DHT22;38162;45.926;13.608;2022-09-27T05:33:22;15.20;94.20
52189;DHT22;38162;45.926;13.608;2022-09-27T05:35:55;15.20;94.20
52189;DHT22;38162;45.926;13.608;2022-09-27T05:38:22;15.20;94.20
52189;DHT22;38162;45.926;13.608;2022-09-27T05:40:48;15.20;94.20
52189;DHT22;38162;45.926;13.608;2022-09-27T05:43:16;15.20;94.30
52189;DHT22;38162;45.926;13.608;2022-09-27T05:45:42;15.20;94.40
52189;DHT22;38162;45.926;13.608;2022-09-27T05:48:09;15.20;94.50
52189;DHT22;38162;45.926;13.608;2022-09-27T05:50:35;15.30;94.50
52189;DHT22;38162;45.926;13.608;2022-09-27T05:53:00;15.20;94.50
52189;DHT22;38162;45.926;13.608;2022-09-27T05:55:26;15.20;94.60
52189;DHT22;38162;45.926;13.608;2022-09-27T05:57:59;15.20;94.60
52189;DHT22;38162;45.926;13.608;2022-09-27T06:00:26;15.20;94.50
52189;DHT22;38162;45.926;13.608;2022-09-27T06:02:55;15.20;94.50
52189;DHT22;38162;45.926;13.608;2022-09-27T06:05:22;15.30;94.40
52189;DHT22;38162;45.926;13.608;2022-09-27T06:07:49;15.20;94.30
52189;DHT22;38162;45.926;13.608;2022-09-27T06:10:16;15.20;94.20
52189;DHT22;38162;45.926;13.608;2022-09-27T06:12:42;15.30;94.20
52189;DHT22;38162;45.926;13.608;2022-09-27T06:15:08;15.30;94.20
52189;DHT22;38162;45.926;13.608;2022-09-27T06:17:34;15.30;94.20
52189;DHT22;38162;45.926;13.608;2022-09-27T06:20:00;15.20;94.20
52189;DHT22;38162;45.926;13.608;2022-09-27T06:22:26;15.30;94.10
52189;DHT22;38162;45.926;13.608;2022-09-27T06:24:52;15.30;94.20
52189;DHT22;38162;45.926;13.608;2022-09-27T06:27:17;15.30;94.30
52189;DHT22;38162;45.926;13.608;2022-09-27T06:29:43;15.30;94.30
52189;DHT22;38162;45.926;13.608;2022-09-27T06:32:09;15.30;94.40
52189;DHT22;38162;45.926;13.608;2022-09-27T06:34:35;15.30;94.50
52189;DHT22;38162;45.926;13.608;2022-09-27T06:37:01;15.30;94.50
52189;DHT22;38162;45.926;13.608;2022-09-27T06:39:27;15.40;94.50
52189;DHT22;38162;45.926;13.608;2022-09-27T06:41:54;15.40;94.60
52189;DHT22;38162;45.926;13.608;2022-09-27T06:44:23;15.40;94.60
52189;DHT22;38162;45.926;13.608;2022-09-27T06:46:52;15.40;94.70
52189;DHT22;38162;45.926;13.608;2022-09-27T06:49:20;15.40;94.60
52189;DHT22;38162;45.926;13.608;2022-09-27T06:51:47;15.40;94.50
52189;DHT22;38162;45.926;13.608;2022-09-27T06:54:13;15.40;94.50
52189;DHT22;38162;45.926;13.608;2022-09-27T06:56:39;15.40;94.60
52189;DHT22;38162;45.926;13.608;2022-09-27T06:59:05;15.50;94.60
52189;DHT22;38162;45.926;13.608;2022-09-27T07:01:49;15.40;94.60
52189;DHT22;38162;45.926;13.608;2022-09-27T07:04:17;15.40;94.80
52189;DHT22;38162;45.926;13.608;2022-09-27T07:06:43;15.40;94.80
52189;DHT22;38162;45.926;13.608;2022-09-27T07:09:09;15.40;94.90
52189;DHT22;38162;45.926;13.608;2022-09-27T07:11:35;15.50;94.90
52189;DHT22;38162;45.926;13.608;2022-09-27T07:14:02;15.50;95.00
52189;DHT22;38162;45.926;13.608;2022-09-27T07:16:29;15.40;94.90
52189;DHT22;38162;45.926;13.608;2022-09-27T07:18:59;15.40;95.00
52189;DHT22;38162;45.926;13.608;2022-09-27T07:21:25;15.40;95.00
52189;DHT22;38162;45.926;13.608;2022-09-27T07:23:51;15.40;95.10
52189;DHT22;38162;45.926;13.608;2022-09-27T07:26:18;15.50;95.20
52189;DHT22;38162;45.926;13.608;2022-09-27T07:28:43;15.50;95.20
52189;DHT22;38162;45.926;13.608;2022-09-27T07:31:11;15.50;95.40
52189;DHT22;38162;45.926;13.608;2022-09-27T07:33:37;15.50;95.40
52189;DHT22;38162;45.926;13.608;2022-09-27T07:36:08;15.50;95.40
52189;DHT22;38162;45.926;13.608;2022-09-27T07:38:35;15.50;95.50
52189;DHT22;38162;45.926;13.608;2022-09-27T07:41:11;15.50;95.50
52189;DHT22;38162;45.926;13.608;2022-09-27T07:43:39;15.60;95.50
52189;DHT22;38162;45.926;13.608;2022-09-27T07:46:05;15.60;95.40
52189;DHT22;38162;45.926;13.608;2022-09-27T07:48:32;15.60;95.40
52189;DHT22;38162;45.926;13.608;2022-09-27T07:50:58;15.60;95.50
52189;DHT22;38162;45.926;13.608;2022-09-27T07:53:24;15.60;95.50
52189;DHT22;38162;45.926;13.608;2022-09-27T07:55:51;15.60;95.60
52189;DHT22;38162;45.926;13.608;2022-09-27T07:58:18;15.60;95.60
52189;DHT22;38162;45.926;13.608;2022-09-27T08:00:44;15.60;95.70
52189;DHT22;38162;45.926;13.608;2022-09-27T08:03:12;15.60;95.90
52189;DHT22;38162;45.926;13.608;2022-09-27T08:05:45;15.70;96.00
52189;DHT22;38162;45.926;13.608;2022-09-27T08:08:12;15.80;96.30
52189;DHT22;38162;45.926;13.608;2022-09-27T08:10:38;15.90;96.40
52189;DHT22;38162;45.926;13.608;2022-09-27T08:13:09;16.00;96.00
52189;DHT22;38162;45.926;13.608;2022-09-27T08:15:35;16.10;96.00
52189;DHT22;38162;45.926;13.608;2022-09-27T08:18:03;16.10;95.70
52189;DHT22;38162;45.926;13.608;2022-09-27T08:20:29;16.20;95.60
52189;DHT22;38162;45.926;13.608;2022-09-27T08:22:55;16.20;95.70
52189;DHT22;38162;45.926;13.608;2022-09-27T08:25:21;16.20;95.60
52189;DHT22;38162;45.926;13.608;2022-09-27T08:27:59;16.20;95.60
52189;DHT22;38162;45.926;13.608;2022-09-27T08:30:26;16.20;95.60
52189;DHT22;38162;45.926;13.608;2022-09-27T08:32:56;16.20;95.50
52189;DHT22;38162;45.926;13.608;2022-09-27T08:35:23;16.10;95.30
52189;DHT22;38162;45.926;13.608;2022-09-27T08:37:56;16.10;95.20
52189;DHT22;38162;45.926;13.608;2022-09-27T08:46:02;15.80;94.30
52189;DHT22;38162;45.926;13.608;2022-09-27T08:48:29;15.70;94.40
52189;DHT22;38162;45.926;13.608;2022-09-27T08:50:56;15.70;94.50
52189;DHT22;38162;45.926;13.608;2022-09-27T08:53:26;15.60;94.20
52189;DHT22;38162;45.926;13.608;2022-09-27T08:55:59;15.60;94.20
52189;DHT22;38162;45.926;13.608;2022-09-27T08:58:34;15.60;94.00
52189;DHT22;38162;45.926;13.608;2022-09-27T09:01:02;15.60;94.10
52189;DHT22;38162;45.926;13.608;2022-09-27T09:03:31;15.50;94.30
52189;DHT22;38162;45.926;13.608;2022-09-27T09:26:22;15.70;94.70
52189;DHT22;38162;45.926;13.608;2022-09-27T09:34:37;15.80;94.90
52189;DHT22;38162;45.926;13.608;2022-09-27T09:37:17;15.80;95.00
52189;DHT22;38162;45.926;13.608;2022-09-27T09:39:50;15.80;95.00
52189;DHT22;38162;45.926;13.608;2022-09-27T09:42:37;15.90;95.20
52189;DHT22;38162;45.926;13.608;2022-09-27T09:47:41;15.90;95.10
52189;DHT22;38162;45.926;13.608;2022-09-27T09:50:21;15.90;95.20
52189;DHT22;38162;45.926;13.608;2022-09-27T09:53:38;16.00;95.30
52189;DHT22;38162;45.926;13.608;2022-09-27T09:55:58;16.00;95.40
52189;DHT22;38162;45.926;13.608;2022-09-27T09:58:41;16.10;95.40
52189;DHT22;38162;45.926;13.608;2022-09-27T10:01:22;16.30;95.30
52189;DHT22;38162;45.926;13.608;2022-09-27T10:03:49;16.50;95.30
52189;DHT22;38162;45.926;13.608;2022-09-27T10:06:16;16.70;95.20
52189;DHT22;38162;45.926;13.608;2022-09-27T10:08:42;16.90;94.90
52189;DHT22;38162;45.926;13.608;2022-09-27T10:11:33;17.10;95.10
52189;DHT22;38162;45.926;13.608;2022-09-27T10:14:00;17.20;94.90
52189;DHT22;38162;45.926;13.608;2022-09-27T10:16:26;17.40;94.60
52189;DHT22;38162;45.926;13.608;2022-09-27T10:18:57;17.40;94.10
52189;DHT22;38162;45.926;13.608;2022-09-27T10:21:27;17.50;93.70
52189;DHT22;38162;45.926;13.608;2022-09-27T10:24:13;17.60;93.60
52189;DHT22;38162;45.926;13.608;2022-09-27T10:26:42;17.60;93.60
52189;DHT22;38162;45.926;13.608;2022-09-27T10:31:43;17.70;93.00
52189;DHT22;38162;45.926;13.608;2022-09-27T10:37:13;17.80;92.90
52189;DHT22;38162;45.926;13.608;2022-09-27T10:39:45;17.80;93.00
52189;DHT22;38162;45.926;13.608;2022-09-27T10:42:29;17.80;93.00
52189;DHT22;38162;45.926;13.608;2022-09-27T10:44:56;17.80;92.70
52189;DHT22;38162;45.926;13.608;2022-09-27T10:47:23;17.80;92.70
52189;DHT22;38162;45.926;13.608;2022-09-27T10:49:51;17.70;92.60
52189;DHT22;38162;45.926;13.608;2022-09-27T10:52:26;17.70;92.60
52189;DHT22;38162;45.926;13.608;2022-09-27T10:55:04;17.70;92.60
52189;DHT22;38162;45.926;13.608;2022-09-27T10:57:32;17.60;92.60
52189;DHT22;38162;45.926;13.608;2022-09-27T11:02:52;17.50;92.60
52189;DHT22;38162;45.926;13.608;2022-09-27T11:07:58;17.40;92.70
52189;DHT22;38162;45.926;13.608;2022-09-27T11:10:26;17.40;92.90
52189;DHT22;38162;45.926;13.608;2022-09-27T11:13:12;17.30;93.10
52189;DHT22;38162;45.926;13.608;2022-09-27T11:24:01;17.30;93.00
52189;DHT22;38162;45.926;13.608;2022-09-27T11:26:38;17.30;93.10
52189;DHT22;38162;45.926;13.608;2022-09-27T12:04:59;18.20;92.60
52189;DHT22;38162;45.926;13.608;2022-09-27T12:09:47;18.10;92.10
52189;DHT22;38162;45.926;13.608;2022-09-27T12:12:23;18.20;91.90
52189;DHT22;38162;45.926;13.608;2022-09-27T12:15:03;18.10;92.00
52189;DHT22;38162;45.926;13.608;2022-09-27T12:17:41;18.10;91.90
52189;DHT22;38162;45.926;13.608;2022-09-27T12:20:38;18.10;91.80
52189;DHT22;38162;45.926;13.608;2022-09-27T12:23:11;18.10;91.70
52189;DHT22;38162;45.926;13.608;2022-09-27T12:25:40;18.20;91.60
52189;DHT22;38162;45.926;13.608;2022-09-27T12:34:02;18.20;90.90
52189;DHT22;38162;45.926;13.608;2022-09-27T12:36:35;18.20;90.90
52189;DHT22;38162;45.926;13.608;2022-09-27T12:41:38;18.20;90.80
52189;DHT22;38162;45.926;13.608;2022-09-27T12:44:09;18.20;90.80
52189;DHT22;38162;45.926;13.608;2022-09-27T12:46:58;18.20;90.80
52189;DHT22;38162;45.926;13.608;2022-09-27T12:52:13;18.10;90.50
52189;DHT22;38162;45.926;13.608;2022-09-27T13:00:49;18.10;90.90
52189;DHT22;38162;45.926;13.608;2022-09-27T13:06:16;18.20;91.00
52189;DHT22;38162;45.926;13.608;2022-09-27T13:13:56;18.20;90.50
52189;DHT22;38162;45.926;13.608;2022-09-27T13:16:23;18.20;90.40
52189;DHT22;38162;45.926;13.608;2022-09-27T13:18:53;18.20;90.20
52189;DHT22;38162;45.926;13.608;2022-09-27T13:24:42;18.10;88.90
52189;DHT22;38162;45.926;13.608;2022-09-27T13:35:35;18.10;89.20
52189;DHT22;38162;45.926;13.608;2022-09-27T13:38:02;18.20;87.90
52189;DHT22;38162;45.926;13.608;2022-09-27T13:40:34;18.30;88.00
52189;DHT22;38162;45.926;13.608;2022-09-27T13:45:51;18.50;86.40
52189;DHT22;38162;45.926;13.608;2022-09-27T13:48:37;18.60;85.90
52189;DHT22;38162;45.926;13.608;2022-09-27T13:53:39;18.80;85.70
52189;DHT22;38162;45.926;13.608;2022-09-27T13:56:05;18.80;85.90
52189;DHT22;38162;45.926;13.608;2022-09-27T13:58:58;18.80;85.30
52189;DHT22;38162;45.926;13.608;2022-09-27T14:01:52;18.80;85.50
52189;DHT22;38162;45.926;13.608;2022-09-27T14:04:26;18.70;86.20
52189;DHT22;38162;45.926;13.608;2022-09-27T14:06:58;18.70;86.10
52189;DHT22;38162;45.926;13.608;2022-09-27T14:09:33;18.50;84.40
52189;DHT22;38162;45.926;13.608;2022-09-27T14:12:21;18.40;84.60
52189;DHT22;38162;45.926;13.608;2022-09-27T14:14:50;18.20;83.90
52189;DHT22;38162;45.926;13.608;2022-09-27T14:17:17;18.10;84.80
52189;DHT22;38162;45.926;13.608;2022-09-27T14:19:44;18.10;85.20
52189;DHT22;38162;45.926;13.608;2022-09-27T14:22:14;17.90;85.10
52189;DHT22;38162;45.926;13.608;2022-09-27T14:27:13;17.90;86.00
52189;DHT22;38162;45.926;13.608;2022-09-27T14:30:30;17.80;86.30
52189;DHT22;38162;45.926;13.608;2022-09-27T14:32:32;17.80;87.00
52189;DHT22;38162;45.926;13.608;2022-09-27T14:37:52;17.70;87.90
52189;DHT22;38162;45.926;13.608;2022-09-27T14:40:20;17.70;88.70
52189;DHT22;38162;45.926;13.608;2022-09-27T14:42:46;17.70;89.80
52189;DHT22;38162;45.926;13.608;2022-09-27T14:45:20;17.60;90.50
52189;DHT22;38162;45.926;13.608;2022-09-27T14:47:48;17.60;90.70
52189;DHT22;38162;45.926;13.608;2022-09-27T14:50:23;17.60;91.00
52189;DHT22;38162;45.926;13.608;2022-09-27T14:52:49;17.60;91.40
52189;DHT22;38162;45.926;13.608;2022-09-27T14:55:21;17.60;91.70
52189;DHT22;38162;45.926;13.608;2022-09-27T14:57:59;17.60;92.00
52189;DHT22;38162;45.926;13.608;2022-09-27T15:00:28;17.60;92.00
52189;DHT22;38162;45.926;13.608;2022-09-27T15:03:01;17.60;92.00
52189;DHT22;38162;45.926;13.608;2022-09-27T15:05:31;17.60;91.90
52189;DHT22;38162;45.926;13.608;2022-09-27T15:07:59;17.60;91.80
52189;DHT22;38162;45.926;13.608;2022-09-27T15:10:28;17.60;91.90
52189;DHT22;38162;45.926;13.608;2022-09-27T15:12:56;17.60;91.90
52189;DHT22;38162;45.926;13.608;2022-09-27T15:15:27;17.60;91.60
52189;DHT22;38162;45.926;13.608;2022-09-27T15:17:56;17.60;91.40
52189;DHT22;38162;45.926;13.608;2022-09-27T15:20:30;17.50;91.50
52189;DHT22;38162;45.926;13.608;2022-09-27T15:22:58;17.50;91.70
52189;DHT22;38162;45.926;13.608;2022-09-27T15:25:26;17.50;92.20
52189;DHT22;38162;45.926;13.608;2022-09-27T15:28:15;17.40;92.20
52189;DHT22;38162;45.926;13.608;2022-09-27T15:30:53;17.50;92.10
52189;DHT22;38162;45.926;13.608;2022-09-27T15:33:24;17.40;91.90
52189;DHT22;38162;45.926;13.608;2022-09-27T15:35:56;17.40;91.80
52189;DHT22;38162;45.926;13.608;2022-09-27T15:43:35;17.30;92.00
52189;DHT22;38162;45.926;13.608;2022-09-27T15:46:25;17.30;92.10
52189;DHT22;38162;45.926;13.608;2022-09-27T15:51:46;17.30;92.30
52189;DHT22;38162;45.926;13.608;2022-09-27T15:54:12;17.30;92.30
52189;DHT22;38162;45.926;13.608;2022-09-27T15:56:39;17.20;92.40
52189;DHT22;38162;45.926;13.608;2022-09-27T15:59:05;17.20;92.50
52189;DHT22;38162;45.926;13.608;2022-09-27T16:01:36;17.20;92.40
52189;DHT22;38162;45.926;13.608;2022-09-27T16:04:02;17.20;92.40
52189;DHT22;38162;45.926;13.608;2022-09-27T16:06:28;17.20;92.40
52189;DHT22;38162;45.926;13.608;2022-09-27T16:08:54;17.20;92.30
52189;DHT22;38162;45.926;13.608;2022-09-27T16:11:20;17.20;92.20
52189;DHT22;38162;45.926;13.608;2022-09-27T16:13:45;17.10;92.10
52189;DHT22;38162;45.926;13.608;2022-09-27T16:16:16;17.20;92.10
52189;DHT22;38162;45.926;13.608;2022-09-27T16:18:44;17.10;92.00
52189;DHT22;38162;45.926;13.608;2022-09-27T16:21:11;17.10;91.90
52189;DHT22;38162;45.926;13.608;2022-09-27T16:23:37;17.10;91.50
52189;DHT22;38162;45.926;13.608;2022-09-27T16:26:04;17.10;91.40
52189;DHT22;38162;45.926;13.608;2022-09-27T16:28:31;17.00;90.20
52189;DHT22;38162;45.926;13.608;2022-09-27T16:31:05;17.00;90.40
52189;DHT22;38162;45.926;13.608;2022-09-27T16:33:31;17.00;89.60
52189;DHT22;38162;45.926;13.608;2022-09-27T16:36:03;17.00;89.90
52189;DHT22;38162;45.926;13.608;2022-09-27T16:38:29;17.00;90.10
52189;DHT22;38162;45.926;13.608;2022-09-27T16:40:59;16.90;90.30
52189;DHT22;38162;45.926;13.608;2022-09-27T16:43:27;16.90;90.00
52189;DHT22;38162;45.926;13.608;2022-09-27T16:45:53;16.90;90.00
52189;DHT22;38162;45.926;13.608;2022-09-27T16:48:20;16.80;90.10
52189;DHT22;38162;45.926;13.608;2022-09-27T16:50:45;16.80;90.30
52189;DHT22;38162;45.926;13.608;2022-09-27T16:53:29;16.80;90.40
52189;DHT22;38162;45.926;13.608;2022-09-27T16:55:59;16.80;90.40
52189;DHT22;38162;45.926;13.608;2022-09-27T16:58:25;16.80;90.60
52189;DHT22;38162;45.926;13.608;2022-09-27T17:00:51;16.80;90.70
52189;DHT22;38162;45.926;13.608;2022-09-27T17:03:16;16.80;90.90
52189;DHT22;38162;45.926;13.608;2022-09-27T17:05:42;16.80;91.00
52189;DHT22;38162;45.926;13.608;2022-09-27T17:08:09;16.70;91.00
52189;DHT22;38162;45.926;13.608;2022-09-27T17:10:35;16.70;91.10
52189;DHT22;38162;45.926;13.608;2022-09-27T17:13:03;16.70;91.10
52189;DHT22;38162;45.926;13.608;2022-09-27T17:15:29;16.70;91.30
52189;DHT22;38162;45.926;13.608;2022-09-27T17:17:55;16.60;91.00
52189;DHT22;38162;45.926;13.608;2022-09-27T17:20:20;16.60;90.90
52189;DHT22;38162;45.926;13.608;2022-09-27T17:22:46;16.60;90.80
52189;DHT22;38162;45.926;13.608;2022-09-27T17:25:12;16.60;90.70
52189;DHT22;38162;45.926;13.608;2022-09-27T17:27:37;16.60;90.70
52189;DHT22;38162;45.926;13.608;2022-09-27T17:30:03;16.60;90.70
52189;DHT22;38162;45.926;13.608;2022-09-27T17:32:31;16.60;90.80
52189;DHT22;38162;45.926;13.608;2022-09-27T17:34:56;16.60;90.80
52189;DHT22;38162;45.926;13.608;2022-09-27T17:37:23;16.50;90.80
52189;DHT22;38162;45.926;13.608;2022-09-27T17:39:49;16.50;90.80
52189;DHT22;38162;45.926;13.608;2022-09-27T17:42:14;16.50;90.80
52189;DHT22;38162;45.926;13.608;2022-09-27T17:44:43;16.50;90.80
52189;DHT22;38162;45.926;13.608;2022-09-27T17:47:08;16.50;90.80
52189;DHT22;38162;45.926;13.608;2022-09-27T17:49:52;16.50;90.80
52189;DHT22;38162;45.926;13.608;2022-09-27T17:52:36;16.50;90.50
52189;DHT22;38162;45.926;13.608;2022-09-27T17:55:02;16.50;90.50
52189;DHT22;38162;45.926;13.608;2022-09-27T17:57:28;16.50;90.60
52189;DHT22;38162;45.926;13.608;2022-09-27T17:59:54;16.50;90.50
52189;DHT22;38162;45.926;13.608;2022-09-27T18:02:22;16.50;90.60
52189;DHT22;38162;45.926;13.608;2022-09-27T18:04:48;16.50;90.50
52189;DHT22;38162;45.926;13.608;2022-09-27T18:07:13;16.50;90.60
52189;DHT22;38162;45.926;13.608;2022-09-27T18:09:39;16.50;90.60
52189;DHT22;38162;45.926;13.608;2022-09-27T18:12:05;16.50;90.40
52189;DHT22;38162;45.926;13.608;2022-09-27T18:14:31;16.50;90.00
52189;DHT22;38162;45.926;13.608;2022-09-27T18:16:57;16.50;89.80
52189;DHT22;38162;45.926;13.608;2022-09-27T18:19:24;16.50;89.50
52189;DHT22;38162;45.926;13.608;2022-09-27T18:21:50;16.40;89.30
52189;DHT22;38162;45.926;13.608;2022-09-27T18:24:17;16.40;89.20
52189;DHT22;38162;45.926;13.608;2022-09-27T18:26:43;16.40;89.00
52189;DHT22;38162;45.926;13.608;2022-09-27T18:29:16;16.40;88.50